Terminal Aerodrome Forecast
Issued by NWS Wilmington, OH

Current Version | Previous Version | Graphics & Text | Print | Product List | Glossary On
Versions: 1 2 3 4 5 6 7 8 9 10 11 12 13 14 15 16 17 18 19 20 21 22 23 24 25 26 27
000
FTUS41 KILN 242000 AAA
TAFCVG
TAF AMD
KCVG 242037Z 2421/2524 09008KT P6SM VCSH OVC070
      TEMPO 2421/2423 5SM -SHRA OVC040
     FM250200 11008KT P6SM BKN060
     FM250900 18013G20KT 4SM -SHRA OVC035
     FM251500 23014G24KT P6SM SCT035 SCT250
     FM252100 23009KT P6SM SCT035 SCT250=

USA.gov is the U.S. government's official web portal to all federal, state and local government web resources and services.